Time;durP1;ratioP1;P1;durP2;ratioP2;P2;SDS_P1;SDS_P2;PMS_P1;PMS_P2;Temp;Humidity;BMP_temperature;BMP_pressure;BME280_temperature;BME280_humidity;BME280_pressure;Samples;Min_cycle;Max_cycle;Signal;HPM_P1;HPM_P2
2022/09/05 00:00:21;;;;;;;;;;;;;;;;;;2132651;27;19934;-43
2022/09/05 00:01:22;;;;;;;;;;;;;;;;;;2132625;27;19998;-44
2022/09/05 00:02:27;;;;;;;;;;;;;;;;;;2132436;27;20340;-44
2022/09/05 00:03:28;;;;;;;;;;;;;;;;;;2132433;27;19923;-44
2022/09/05 00:04:30;;;;;;;;;;;;;;;;;;2132638;27;20353;-44
2022/09/05 00:05:30;;;;;;;;;;;;;;;;;;2132695;27;19931;-41
2022/09/05 00:06:31;;;;;;;;;;;;;;;;;;2132465;27;20391;-41
2022/09/05 00:07:32;;;;;;;;;;;;;;;;;;2132475;27;20013;-40
2022/09/05 00:08:53;;;;;;;;;;;;;;;;;;2132604;27;19926;-41
2022/09/05 00:09:54;;;;;;;;;;;;;;;;;;2132424;27;20030;-40
2022/09/05 00:10:55;;;;;;;;;;;;;;;;;;2132588;27;19934;-40
2022/09/05 00:12:16;;;;;;;;;;;;;;;;;;2123966;28;19924;-41
2022/09/05 00:13:17;;;;;;;;;;;;;;;;;;2123886;28;20395;-40
2022/09/05 00:14:17;;;;;;;;;;;;;;;;;;2123925;28;20010;-40
2022/09/05 00:15:39;;;;;;;;;;;;;;;;;;2124034;28;19931;-40
2022/09/05 00:16:40;;;;;;;;;;;;;;;;;;2123955;27;20402;-43
2022/09/05 00:17:41;;;;;;;;;;;;;;;;;;2123947;28;19934;-43
2022/09/05 00:19:01;;;;;;;;;;;;;;;;;;2123796;28;20406;-45
2022/09/05 00:20:22;;;;;;;;;;;;;;;;;;2123742;28;19923;-44
2022/09/05 00:21:43;;;;;;;;;;;;;;;;;;2123791;27;19924;-43
2022/09/05 00:23:04;;;;;;;;;;;;;;;;;;2123841;28;19985;-43
2022/09/05 00:24:25;;;;;;;;;;;;;;;;;;2129814;27;19945;-43
2022/09/05 00:25:46;;;;;;;;;;;;;;;;;;2132353;27;19972;-44
2022/09/05 00:26:46;;;;;;;;;;;;;;;;;;2132516;27;19927;-43
2022/09/05 00:27:50;;;;;;;;;;;;;;;;;;2132387;27;20283;-43
2022/09/05 00:28:51;;;;;;;;;;;;;;;;;;2132711;27;20204;-44
2022/09/05 00:29:52;;;;;;;;;;;;;;;;;;2132402;27;19923;-44
2022/09/05 00:31:13;;;;;;;;;;;;;;;;;;2132428;27;19923;-43
2022/09/05 00:32:35;;;;;;;;;;;;;;;;;;2132164;27;19927;-44
2022/09/05 00:33:35;;;;;;;;;;;;;;;;;;2132671;27;19923;-40
2022/09/05 00:34:37;;;;;;;;;;;;;;;;;;2132290;27;19946;-40
2022/09/05 00:35:48;;;;;;;;;;;;;;;;;;2132448;27;20035;-41
2022/09/05 00:36:49;;;;;;;;;;;;;;;;;;2132302;27;19969;-40
2022/09/05 00:37:50;;;;;;;;;;;;;;;;;;2132387;27;20009;-40
2022/09/05 00:38:51;;;;;;;;;;;;;;;;;;2132401;27;20290;-39
2022/09/05 00:39:52;;;;;;;;;;;;;;;;;;2132457;27;20417;-41
2022/09/05 00:41:11;;;;;;;;;;;;;;;;;;2132265;27;19974;-40
2022/09/05 00:42:12;;;;;;;;;;;;;;;;;;2132347;27;20025;-40
2022/09/05 00:43:13;;;;;;;;;;;;;;;;;;2132360;27;19946;-40
2022/09/05 00:44:14;;;;;;;;;;;;;;;;;;2132419;27;20059;-40
2022/09/05 00:45:15;;;;;;;;;;;;;;;;;;2132258;27;20348;-40
2022/09/05 00:46:21;;;;;;;;;;;;;;;;;;2132336;27;19930;-40
2022/09/05 00:47:22;;;;;;;;;;;;;;;;;;2132398;27;19934;-40
2022/09/05 00:48:23;;;;;;;;;;;;;;;;;;2132418;27;20021;-40
2022/09/05 00:49:24;;;;;;;;;;;;;;;;;;2132359;27;20241;-41
2022/09/05 00:50:24;;;;;;;;;;;;;;;;;;2132212;27;19987;-40
2022/09/05 00:51:25;;;;;;;;;;;;;;;;;;2132314;27;19923;-41
2022/09/05 00:52:30;;;;;;;;;;;;;;;;;;2132160;27;19930;-40
2022/09/05 00:53:31;;;;;;;;;;;;;;;;;;2132269;27;19938;-41
2022/09/05 00:54:32;;;;;;;;;;;;;;;;;;2132174;27;20400;-40
2022/09/05 00:55:41;;;;;;;;;;;;;;;;;;2132165;27;19926;-41
2022/09/05 00:56:42;;;;;;;;;;;;;;;;;;2132051;27;20010;-40
2022/09/05 00:57:43;;;;;;;;;;;;;;;;;;2132154;27;20025;-40
2022/09/05 00:58:44;;;;;;;;;;;;;;;;;;2132103;27;19924;-40
2022/09/05 00:59:45;;;;;;;;;;;;;;;;;;2132187;27;20261;-40
2022/09/05 01:00:52;;;;;;;;;;;;;;;;;;2132348;27;20013;-40
2022/09/05 01:01:53;;;;;;;;;;;;;;;;;;2131947;27;19927;-41
2022/09/05 01:02:53;;;;;;;;;;;;;;;;;;2132123;27;20014;-41
2022/09/05 01:03:55;;;;;;;;;;;;;;;;;;2132278;27;19923;-40
2022/09/05 01:04:55;;;;;;;;;;;;;;;;;;2132450;27;20018;-41
2022/09/05 01:05:56;;;;;;;;;;;;;;;;;;2132308;27;20363;-43
2022/09/05 01:06:57;;;;;;;;;;;;;;;;;;2132278;27;19923;-45
2022/09/05 01:07:58;;;;;;;;;;;;;;;;;;2132179;27;19930;-43
2022/09/05 01:08:59;;;;;;;;;;;;;;;;;;2132092;27;19930;-42
2022/09/05 01:10:08;;;;;;;;;;;;;;;;;;2132122;27;20362;-43
2022/09/05 01:11:09;;;;;;;;;;;;;;;;;;2132018;27;19927;-44
2022/09/05 01:12:10;;;;;;;;;;;;;;;;;;2132153;27;19923;-44
2022/09/05 01:13:10;;;;;;;;;;;;;;;;;;2132515;27;20261;-40
2022/09/05 01:14:11;;;;;;;;;;;;;;;;;;2131878;27;19931;-40
2022/09/05 01:15:13;;;;;;;;;;;;;;;;;;2131337;27;19930;-40
2022/09/05 01:16:14;;;;;;;;;;;;;;;;;;2131415;27;19969;-40
2022/09/05 01:17:14;;;;;;;;;;;;;;;;;;2131467;27;19930;-41
2022/09/05 01:18:16;;;;;;;;;;;;;;;;;;2131926;27;20291;-41
2022/09/05 01:19:16;;;;;;;;;;;;;;;;;;2132017;27;20387;-40
2022/09/05 01:20:17;;;;;;;;;;;;;;;;;;2131814;27;19937;-40
2022/09/05 01:21:20;;;;;;;;;;;;;;;;;;2132091;27;19930;-40
2022/09/05 01:22:21;;;;;;;;;;;;;;;;;;2132009;27;20419;-40
2022/09/05 01:23:21;;;;;;;;;;;;;;;;;;2132135;27;19935;-40
2022/09/05 01:24:22;;;;;;;;;;;;;;;;;;2132015;27;19945;-40
2022/09/05 01:25:27;;;;;;;;;;;;;;;;;;2132242;27;20309;-40
2022/09/05 01:26:28;;;;;;;;;;;;;;;;;;2131932;27;19923;-40
2022/09/05 01:27:29;;;;;;;;;;;;;;;;;;2132181;27;20013;-40
2022/09/05 01:28:34;;;;;;;;;;;;;;;;;;2132006;27;19923;-40
2022/09/05 01:29:55;;;;;;;;;;;;;;;;;;2131989;27;20321;-40
2022/09/05 01:30:56;;;;;;;;;;;;;;;;;;2132003;27;20052;-40
2022/09/05 01:31:57;;;;;;;;;;;;;;;;;;2131962;27;19979;-40
2022/09/05 01:32:58;;;;;;;;;;;;;;;;;;2132109;27;19923;-40
2022/09/05 01:34:06;;;;;;;;;;;;;;;;;;2132341;27;19984;-40
2022/09/05 01:35:08;;;;;;;;;;;;;;;;;;2131941;27;19927;-40
2022/09/05 01:36:09;;;;;;;;;;;;;;;;;;2132056;27;20458;-40
2022/09/05 01:37:10;;;;;;;;;;;;;;;;;;2131978;27;19923;-40
2022/09/05 01:38:25;;;;;;;;;;;;;;;;;;2132030;27;19968;-40
2022/09/05 01:39:26;;;;;;;;;;;;;;;;;;2132041;27;19923;-40
2022/09/05 01:40:47;;;;;;;;;;;;;;;;;;2131879;27;19930;-40
2022/09/05 01:41:49;;;;;;;;;;;;;;;;;;2132162;27;19933;-43
2022/09/05 01:42:51;;;;;;;;;;;;;;;;;;2131835;27;20414;-43
2022/09/05 01:43:52;;;;;;;;;;;;;;;;;;2132166;27;19961;-40
2022/09/05 01:44:54;;;;;;;;;;;;;;;;;;2131882;27;19927;-40
2022/09/05 01:45:55;;;;;;;;;;;;;;;;;;2132025;27;20063;-40
2022/09/05 01:46:56;;;;;;;;;;;;;;;;;;2131789;27;19930;-40
2022/09/05 01:47:56;;;;;;;;;;;;;;;;;;2131969;27;20419;-40
2022/09/05 01:48:58;;;;;;;;;;;;;;;;;;2131916;27;19923;-40
2022/09/05 01:49:59;;;;;;;;;;;;;;;;;;2131976;27;19923;-40
2022/09/05 01:51:02;;;;;;;;;;;;;;;;;;2131915;27;19965;-40
2022/09/05 01:52:03;;;;;;;;;;;;;;;;;;2131789;27;20017;-40
2022/09/05 01:53:04;;;;;;;;;;;;;;;;;;2131879;27;19929;-40
2022/09/05 01:54:06;;;;;;;;;;;;;;;;;;2131827;27;20348;-40
2022/09/05 01:55:06;;;;;;;;;;;;;;;;;;2131899;27;19930;-41
2022/09/05 01:56:07;;;;;;;;;;;;;;;;;;2131831;27;20075;-40
2022/09/05 01:57:12;;;;;;;;;;;;;;;;;;2131959;27;20010;-40
2022/09/05 01:58:13;;;;;;;;;;;;;;;;;;2131825;27;19930;-40
2022/09/05 01:59:14;;;;;;;;;;;;;;;;;;2131911;27;19968;-40
2022/09/05 02:00:15;;;;;;;;;;;;;;;;;;2131777;27;20010;-40
2022/09/05 02:01:16;;;;;;;;;;;;;;;;;;2132081;27;20268;-40
2022/09/05 02:02:25;;;;;;;;;;;;;;;;;;2131747;27;19931;-40
2022/09/05 02:03:26;;;;;;;;;;;;;;;;;;2131746;27;19923;-40
2022/09/05 02:04:27;;;;;;;;;;;;;;;;;;2132045;27;19923;-40
2022/09/05 02:05:28;;;;;;;;;;;;;;;;;;2133289;27;19930;-40
2022/09/05 02:06:49;;;;;;;;;;;;;;;;;;2133365;27;19930;-40
2022/09/05 02:07:50;;;;;;;;;;;;;;;;;;2133487;27;19923;-40
2022/09/05 02:08:51;;;;;;;;;;;;;;;;;;2133378;27;19971;-40
2022/09/05 02:09:52;;;;;;;;;;;;;;;;;;2133471;27;20352;-40
2022/09/05 02:10:52;;;;;;;;;;;;;;;;;;2133429;27;20311;-40
2022/09/05 02:11:53;;;;;;;;;;;;;;;;;;2133171;27;19927;-40
2022/09/05 02:12:54;;;;;;;;;;;;;;;;;;2133434;27;19953;-40
2022/09/05 02:14:03;;;;;;;;;;;;;;;;;;2133279;27;20013;-40
2022/09/05 02:15:04;;;;;;;;;;;;;;;;;;2133323;27;19923;-40
2022/09/05 02:16:05;;;;;;;;;;;;;;;;;;2133217;27;19930;-40
2022/09/05 02:17:06;;;;;;;;;;;;;;;;;;2132985;27;19945;-41
2022/09/05 02:18:07;;;;;;;;;;;;;;;;;;2133521;27;19923;-40
2022/09/05 02:19:07;;;;;;;;;;;;;;;;;;2133423;27;19930;-40
2022/09/05 02:20:09;;;;;;;;;;;;;;;;;;2133317;27;19923;-40
2022/09/05 02:21:09;;;;;;;;;;;;;;;;;;2133387;27;19923;-40
2022/09/05 02:22:10;;;;;;;;;;;;;;;;;;2133157;27;19929;-40
2022/09/05 02:23:14;;;;;;;;;;;;;;;;;;2133189;27;20017;-40
2022/09/05 02:24:25;;;;;;;;;;;;;;;;;;2133188;27;20401;-40
2022/09/05 02:25:26;;;;;;;;;;;;;;;;;;2133550;27;19968;-43
2022/09/05 02:26:46;;;;;;;;;;;;;;;;;;2133233;27;19924;-43
2022/09/05 02:27:47;;;;;;;;;;;;;;;;;;2133211;27;20418;-43
2022/09/05 02:29:05;;;;;;;;;;;;;;;;;;2133377;27;19923;-40
2022/09/05 02:30:07;;;;;;;;;;;;;;;;;;2133419;27;19923;-40
2022/09/05 02:31:08;;;;;;;;;;;;;;;;;;2133246;27;20011;-40
2022/09/05 02:32:20;;;;;;;;;;;;;;;;;;2133322;27;19923;-40
2022/09/05 02:33:21;;;;;;;;;;;;;;;;;;2133064;27;20303;-40
2022/09/05 02:34:22;;;;;;;;;;;;;;;;;;2133133;27;20298;-40
2022/09/05 02:35:23;;;;;;;;;;;;;;;;;;2133091;27;19923;-40
2022/09/05 02:36:24;;;;;;;;;;;;;;;;;;2133057;27;20417;-40
2022/09/05 02:37:25;;;;;;;;;;;;;;;;;;2133258;27;19929;-40
2022/09/05 02:38:46;;;;;;;;;;;;;;;;;;2133161;27;19923;-42
2022/09/05 02:40:07;;;;;;;;;;;;;;;;;;2133120;27;19929;-40
2022/09/05 02:41:29;;;;;;;;;;;;;;;;;;2132983;27;19975;-40
2022/09/05 02:42:50;;;;;;;;;;;;;;;;;;2132934;27;19946;-40
2022/09/05 02:44:11;;;;;;;;;;;;;;;;;;2133037;27;20415;-40
2022/09/05 02:45:31;;;;;;;;;;;;;;;;;;2132985;27;19957;-40
2022/09/05 02:46:33;;;;;;;;;;;;;;;;;;2133227;27;19934;-42
2022/09/05 02:47:34;;;;;;;;;;;;;;;;;;2132997;27;20321;-41
2022/09/05 02:48:35;;;;;;;;;;;;;;;;;;2133071;27;19958;-41
2022/09/05 02:49:35;;;;;;;;;;;;;;;;;;2133266;27;19972;-41
2022/09/05 02:50:56;;;;;;;;;;;;;;;;;;2133150;27;19951;-41
2022/09/05 02:52:18;;;;;;;;;;;;;;;;;;2133096;27;19930;-41
2022/09/05 02:53:39;;;;;;;;;;;;;;;;;;2132891;27;19929;-40
2022/09/05 02:54:59;;;;;;;;;;;;;;;;;;2133115;27;19930;-41
2022/09/05 02:56:20;;;;;;;;;;;;;;;;;;2132899;27;19924;-40
2022/09/05 02:57:41;;;;;;;;;;;;;;;;;;2133172;27;19946;-41
2022/09/05 02:59:02;;;;;;;;;;;;;;;;;;2132855;27;20371;-41
2022/09/05 03:00:10;;;;;;;;;;;;;;;;;;2133326;27;19940;-44
2022/09/05 03:01:11;;;;;;;;;;;;;;;;;;2132910;27;19995;-44
2022/09/05 03:02:12;;;;;;;;;;;;;;;;;;2133022;27;19930;-43
2022/09/05 03:03:26;;;;;;;;;;;;;;;;;;2132942;27;20031;-44
2022/09/05 03:04:27;;;;;;;;;;;;;;;;;;2133091;27;19974;-43
2022/09/05 03:05:28;;;;;;;;;;;;;;;;;;2132952;27;19981;-43
2022/09/05 03:06:29;;;;;;;;;;;;;;;;;;2132963;27;19923;-43
2022/09/05 03:07:35;;;;;;;;;;;;;;;;;;2133015;27;20256;-43
2022/09/05 03:08:36;;;;;;;;;;;;;;;;;;2132846;27;19961;-44
2022/09/05 03:09:36;;;;;;;;;;;;;;;;;;2132949;27;19924;-44
2022/09/05 03:10:38;;;;;;;;;;;;;;;;;;2132939;27;19923;-43
2022/09/05 03:11:53;;;;;;;;;;;;;;;;;;2124166;27;19934;-44
2022/09/05 03:12:54;;;;;;;;;;;;;;;;;;2128009;27;19971;-43
2022/09/05 03:13:55;;;;;;;;;;;;;;;;;;2132870;27;20014;-44
2022/09/05 03:14:56;;;;;;;;;;;;;;;;;;2132868;27;19930;-43
2022/09/05 03:15:57;;;;;;;;;;;;;;;;;;2132123;27;20363;-43
2022/09/05 03:17:01;;;;;;;;;;;;;;;;;;2132311;27;19971;-41
2022/09/05 03:18:02;;;;;;;;;;;;;;;;;;2133024;27;19929;-43
2022/09/05 03:19:21;;;;;;;;;;;;;;;;;;2132892;27;19923;-43
2022/09/05 03:20:21;;;;;;;;;;;;;;;;;;2132840;27;19927;-43
2022/09/05 03:21:22;;;;;;;;;;;;;;;;;;2132766;27;20039;-43
2022/09/05 03:22:23;;;;;;;;;;;;;;;;;;2132884;27;19933;-43
2022/09/05 03:23:27;;;;;;;;;;;;;;;;;;2132812;27;20005;-43
2022/09/05 03:24:27;;;;;;;;;;;;;;;;;;2133008;27;20025;-44
2022/09/05 03:25:28;;;;;;;;;;;;;;;;;;2132815;27;20379;-43
2022/09/05 03:26:29;;;;;;;;;;;;;;;;;;2133260;27;19974;-40
2022/09/05 03:27:30;;;;;;;;;;;;;;;;;;2132762;27;19962;-41
2022/09/05 03:28:31;;;;;;;;;;;;;;;;;;2132925;27;19930;-41
2022/09/05 03:29:32;;;;;;;;;;;;;;;;;;2133183;27;20363;-41
2022/09/05 03:30:32;;;;;;;;;;;;;;;;;;2132972;27;19923;-44
2022/09/05 03:31:33;;;;;;;;;;;;;;;;;;2132884;27;20311;-44
2022/09/05 03:32:34;;;;;;;;;;;;;;;;;;2132687;27;20447;-43
2022/09/05 03:33:35;;;;;;;;;;;;;;;;;;2132771;27;19938;-44
2022/09/05 03:34:36;;;;;;;;;;;;;;;;;;2132906;27;19979;-44
2022/09/05 03:35:37;;;;;;;;;;;;;;;;;;2132890;27;19923;-44
2022/09/05 03:36:38;;;;;;;;;;;;;;;;;;2132701;27;19924;-45
2022/09/05 03:37:38;;;;;;;;;;;;;;;;;;2132810;27;20356;-44
2022/09/05 03:38:39;;;;;;;;;;;;;;;;;;2132779;27;19931;-44
2022/09/05 03:39:41;;;;;;;;;;;;;;;;;;2133254;27;20007;-44
2022/09/05 03:40:42;;;;;;;;;;;;;;;;;;2132889;27;20380;-41
2022/09/05 03:41:43;;;;;;;;;;;;;;;;;;2132548;27;19923;-41
2022/09/05 03:42:44;;;;;;;;;;;;;;;;;;2132730;27;20014;-41
2022/09/05 03:43:45;;;;;;;;;;;;;;;;;;2132670;27;20014;-41
2022/09/05 03:44:46;;;;;;;;;;;;;;;;;;2132722;27;20372;-41
2022/09/05 03:45:46;;;;;;;;;;;;;;;;;;2132726;27;19962;-41
2022/09/05 03:46:48;;;;;;;;;;;;;;;;;;2132676;27;19923;-41
2022/09/05 03:47:49;;;;;;;;;;;;;;;;;;2132739;27;19980;-41
2022/09/05 03:48:50;;;;;;;;;;;;;;;;;;2132789;27;20326;-41
2022/09/05 03:49:51;;;;;;;;;;;;;;;;;;2132795;27;19923;-40
2022/09/05 03:51:12;;;;;;;;;;;;;;;;;;2132947;27;19935;-45
2022/09/05 03:52:32;;;;;;;;;;;;;;;;;;2132668;27;19923;-44
2022/09/05 03:53:53;;;;;;;;;;;;;;;;;;2132610;27;19927;-43
2022/09/05 03:55:14;;;;;;;;;;;;;;;;;;2132695;27;19923;-43
2022/09/05 03:56:37;;;;;;;;;;;;;;;;;;2132615;27;19923;-44
2022/09/05 03:57:57;;;;;;;;;;;;;;;;;;2132698;27;19923;-44
2022/09/05 03:58:59;;;;;;;;;;;;;;;;;;2132643;27;19923;-44
2022/09/05 04:00:01;;;;;;;;;;;;;;;;;;2132768;27;19923;-43
2022/09/05 04:01:02;;;;;;;;;;;;;;;;;;2132705;27;20005;-45
2022/09/05 04:02:20;;;;;;;;;;;;;;;;;;2132683;27;19930;-43
2022/09/05 04:03:41;;;;;;;;;;;;;;;;;;2132509;27;19923;-44
2022/09/05 04:05:02;;;;;;;;;;;;;;;;;;2132488;27;20299;-44
2022/09/05 04:06:26;;;;;;;;;;;;;;;;;;2132401;27;19923;-44
2022/09/05 04:07:47;;;;;;;;;;;;;;;;;;2132513;27;19923;-43
2022/09/05 04:09:08;;;;;;;;;;;;;;;;;;2132413;27;19930;-44
2022/09/05 04:10:09;;;;;;;;;;;;;;;;;;2132468;27;19945;-43
2022/09/05 04:11:10;;;;;;;;;;;;;;;;;;2132354;27;19930;-44
2022/09/05 04:12:11;;;;;;;;;;;;;;;;;;2132685;27;19970;-44
2022/09/05 04:13:12;;;;;;;;;;;;;;;;;;2132697;27;20013;-44
2022/09/05 04:14:13;;;;;;;;;;;;;;;;;;2132570;27;20009;-44
2022/09/05 04:15:16;;;;;;;;;;;;;;;;;;2132497;27;19923;-44
2022/09/05 04:16:17;;;;;;;;;;;;;;;;;;2132561;27;19930;-43
2022/09/05 04:17:18;;;;;;;;;;;;;;;;;;2132559;27;19923;-44
2022/09/05 04:18:19;;;;;;;;;;;;;;;;;;2132772;27;19966;-46
2022/09/05 04:19:33;;;;;;;;;;;;;;;;;;2132748;27;19930;-43
2022/09/05 04:20:34;;;;;;;;;;;;;;;;;;2132455;27;19927;-44
2022/09/05 04:21:43;;;;;;;;;;;;;;;;;;2132523;27;19927;-44
2022/09/05 04:22:44;;;;;;;;;;;;;;;;;;2132447;27;20017;-44
2022/09/05 04:23:44;;;;;;;;;;;;;;;;;;2132518;27;19975;-44
2022/09/05 04:24:45;;;;;;;;;;;;;;;;;;2132558;27;19967;-43
2022/09/05 04:25:46;;;;;;;;;;;;;;;;;;2132554;27;19923;-43
2022/09/05 04:26:47;;;;;;;;;;;;;;;;;;2132342;27;19942;-44
2022/09/05 04:27:48;;;;;;;;;;;;;;;;;;2132073;27;20341;-45
2022/09/05 04:28:49;;;;;;;;;;;;;;;;;;2132422;27;19923;-43
2022/09/05 04:29:53;;;;;;;;;;;;;;;;;;2132449;27;20180;-44
2022/09/05 04:30:54;;;;;;;;;;;;;;;;;;2132343;27;19923;-45
2022/09/05 04:31:55;;;;;;;;;;;;;;;;;;2132553;27;19930;-43
2022/09/05 04:33:07;;;;;;;;;;;;;;;;;;2132392;27;19924;-43
2022/09/05 04:34:07;;;;;;;;;;;;;;;;;;2132415;27;20041;-44
2022/09/05 04:35:08;;;;;;;;;;;;;;;;;;2132583;27;19958;-41
2022/09/05 04:36:09;;;;;;;;;;;;;;;;;;2132346;27;20276;-41
2022/09/05 04:37:21;;;;;;;;;;;;;;;;;;2132627;27;19957;-41
2022/09/05 04:38:22;;;;;;;;;;;;;;;;;;2132181;27;20002;-44
2022/09/05 04:39:23;;;;;;;;;;;;;;;;;;2132416;27;19977;-46
2022/09/05 04:40:24;;;;;;;;;;;;;;;;;;2132332;27;20334;-43
2022/09/05 04:41:26;;;;;;;;;;;;;;;;;;2132381;27;19923;-44
2022/09/05 04:42:40;;;;;;;;;;;;;;;;;;2132378;27;20015;-44
2022/09/05 04:43:40;;;;;;;;;;;;;;;;;;2132651;27;19935;-41
2022/09/05 04:44:41;;;;;;;;;;;;;;;;;;2132284;27;20496;-40
2022/09/05 04:45:42;;;;;;;;;;;;;;;;;;2132252;27;20368;-41
2022/09/05 04:46:44;;;;;;;;;;;;;;;;;;2132202;27;19930;-41
2022/09/05 04:47:49;;;;;;;;;;;;;;;;;;2132317;27;19944;-41
2022/09/05 04:48:50;;;;;;;;;;;;;;;;;;2132550;27;20014;-43
2022/09/05 04:49:51;;;;;;;;;;;;;;;;;;2132248;27;19923;-45
2022/09/05 04:50:52;;;;;;;;;;;;;;;;;;2132220;27;19969;-43
2022/09/05 04:51:53;;;;;;;;;;;;;;;;;;2132297;27;19967;-43
2022/09/05 04:53:00;;;;;;;;;;;;;;;;;;2132247;27;19923;-44
2022/09/05 04:54:01;;;;;;;;;;;;;;;;;;2132370;27;19927;-44
2022/09/05 04:55:02;;;;;;;;;;;;;;;;;;2132361;27;20394;-43
2022/09/05 04:56:03;;;;;;;;;;;;;;;;;;2132246;27;19962;-44
2022/09/05 04:57:05;;;;;;;;;;;;;;;;;;2132215;27;19923;-44
2022/09/05 04:58:14;;;;;;;;;;;;;;;;;;2132408;27;19923;-41
2022/09/05 04:59:15;;;;;;;;;;;;;;;;;;2132508;27;20006;-41
2022/09/05 05:00:36;;;;;;;;;;;;;;;;;;2132188;27;19975;-41
2022/09/05 05:01:57;;;;;;;;;;;;;;;;;;2132038;27;20284;-41
2022/09/05 05:03:18;;;;;;;;;;;;;;;;;;2132029;27;20323;-43
2022/09/05 05:04:39;;;;;;;;;;;;;;;;;;2132194;27;19923;-44
2022/09/05 05:06:00;;;;;;;;;;;;;;;;;;2123653;28;19924;-45
2022/09/05 05:07:08;;;;;;;;;;;;;;;;;;2123718;27;19931;-41
2022/09/05 05:08:09;;;;;;;;;;;;;;;;;;2123567;28;19923;-41
2022/09/05 05:09:10;;;;;;;;;;;;;;;;;;2123584;28;19951;-41
2022/09/05 05:10:11;;;;;;;;;;;;;;;;;;2123545;28;20062;-41
2022/09/05 05:11:32;;;;;;;;;;;;;;;;;;2123189;27;20433;-42
2022/09/05 05:12:53;;;;;;;;;;;;;;;;;;2123654;28;19930;-41
2022/09/05 05:14:14;;;;;;;;;;;;;;;;;;2123499;28;19931;-41
2022/09/05 05:15:34;;;;;;;;;;;;;;;;;;2123575;28;19927;-41
2022/09/05 05:16:55;;;;;;;;;;;;;;;;;;2123637;27;19930;-41
2022/09/05 05:18:16;;;;;;;;;;;;;;;;;;2123617;28;19923;-41
2022/09/05 05:19:37;;;;;;;;;;;;;;;;;;2123701;28;19931;-41
2022/09/05 05:20:38;;;;;;;;;;;;;;;;;;2123703;28;19930;-40
2022/09/05 05:21:41;;;;;;;;;;;;;;;;;;2123568;27;20017;-41
2022/09/05 05:22:42;;;;;;;;;;;;;;;;;;2123443;28;20372;-41
2022/09/05 05:23:42;;;;;;;;;;;;;;;;;;2123687;28;19923;-41
2022/09/05 05:24:43;;;;;;;;;;;;;;;;;;2123436;28;19931;-41
2022/09/05 05:25:44;;;;;;;;;;;;;;;;;;2123546;28;20014;-41
2022/09/05 05:26:45;;;;;;;;;;;;;;;;;;2123581;27;19958;-41
2022/09/05 05:27:46;;;;;;;;;;;;;;;;;;2123592;28;20010;-41
2022/09/05 05:28:47;;;;;;;;;;;;;;;;;;2123801;28;19924;-41
2022/09/05 05:29:48;;;;;;;;;;;;;;;;;;2123382;28;20372;-41
2022/09/05 05:30:49;;;;;;;;;;;;;;;;;;2123424;28;19930;-41
2022/09/05 05:31:50;;;;;;;;;;;;;;;;;;2123383;27;19971;-41
2022/09/05 05:32:51;;;;;;;;;;;;;;;;;;2123583;28;20135;-40
2022/09/05 05:34:10;;;;;;;;;;;;;;;;;;2123508;28;19923;-41
2022/09/05 05:35:24;;;;;;;;;;;;;;;;;;2123539;28;19930;-41
2022/09/05 05:36:25;;;;;;;;;;;;;;;;;;2123317;27;20048;-41
2022/09/05 05:37:28;;;;;;;;;;;;;;;;;;2123516;28;19923;-41
2022/09/05 05:38:29;;;;;;;;;;;;;;;;;;2123320;28;20014;-41
2022/09/05 05:39:30;;;;;;;;;;;;;;;;;;2122448;27;20365;-41
2022/09/05 05:40:30;;;;;;;;;;;;;;;;;;2123392;28;19923;-41
2022/09/05 05:41:32;;;;;;;;;;;;;;;;;;2123312;27;19939;-41
2022/09/05 05:42:32;;;;;;;;;;;;;;;;;;2123211;28;19943;-41
2022/09/05 05:43:34;;;;;;;;;;;;;;;;;;2123482;28;19923;-41
2022/09/05 05:44:34;;;;;;;;;;;;;;;;;;2123424;28;19927;-41
2022/09/05 05:45:35;;;;;;;;;;;;;;;;;;2123298;28;19967;-41
2022/09/05 05:46:36;;;;;;;;;;;;;;;;;;2123262;27;20376;-41
2022/09/05 05:47:37;;;;;;;;;;;;;;;;;;2123276;28;19923;-41
2022/09/05 05:48:38;;;;;;;;;;;;;;;;;;2123515;28;19923;-41
2022/09/05 05:49:39;;;;;;;;;;;;;;;;;;2123477;28;19924;-41
2022/09/05 05:50:40;;;;;;;;;;;;;;;;;;2123387;28;20014;-41
2022/09/05 05:51:41;;;;;;;;;;;;;;;;;;2123308;27;19924;-41
2022/09/05 05:53:02;;;;;;;;;;;;;;;;;;2123448;28;19927;-41
2022/09/05 05:54:03;;;;;;;;;;;;;;;;;;2123291;28;20448;-41
2022/09/05 05:55:04;;;;;;;;;;;;;;;;;;2123295;28;19975;-41
2022/09/05 05:56:25;;;;;;;;;;;;;;;;;;2123487;27;20119;-41
2022/09/05 05:57:26;;;;;;;;;;;;;;;;;;2123258;28;19972;-41
2022/09/05 05:58:27;;;;;;;;;;;;;;;;;;2123328;28;19924;-41
2022/09/05 05:59:29;;;;;;;;;;;;;;;;;;2124771;27;20348;-41
2022/09/05 06:00:30;;;;;;;;;;;;;;;;;;2131703;27;19929;-41
2022/09/05 06:01:31;;;;;;;;;;;;;;;;;;2131610;27;19927;-42
2022/09/05 06:02:38;;;;;;;;;;;;;;;;;;2131853;27;19950;-41
2022/09/05 06:03:39;;;;;;;;;;;;;;;;;;2131825;27;19931;-41
2022/09/05 06:04:40;;;;;;;;;;;;;;;;;;2131786;27;19926;-41
2022/09/05 06:05:45;;;;;;;;;;;;;;;;;;2131918;27;19923;-41
2022/09/05 06:06:46;;;;;;;;;;;;;;;;;;2131730;27;20357;-41
2022/09/05 06:07:47;;;;;;;;;;;;;;;;;;2131856;27;20014;-41
2022/09/05 06:09:07;;;;;;;;;;;;;;;;;;2131950;27;19929;-41
2022/09/05 06:10:28;;;;;;;;;;;;;;;;;;2131962;27;19923;-41
2022/09/05 06:11:49;;;;;;;;;;;;;;;;;;2131435;27;20277;-41
2022/09/05 06:13:10;;;;;;;;;;;;;;;;;;2131711;27;20368;-41
2022/09/05 06:14:34;;;;;;;;;;;;;;;;;;2131795;27;19972;-41
2022/09/05 06:15:55;;;;;;;;;;;;;;;;;;2132045;27;19923;-45
2022/09/05 06:16:57;;;;;;;;;;;;;;;;;;2131719;27;19976;-45
2022/09/05 06:17:58;;;;;;;;;;;;;;;;;;2131736;27;19923;-44
2022/09/05 06:18:59;;;;;;;;;;;;;;;;;;2131713;27;19923;-44
2022/09/05 06:20:00;;;;;;;;;;;;;;;;;;2131898;27;20346;-46
2022/09/05 06:21:21;;;;;;;;;;;;;;;;;;2131832;27;19950;-42
2022/09/05 06:22:42;;;;;;;;;;;;;;;;;;2131593;27;20295;-41
2022/09/05 06:23:43;;;;;;;;;;;;;;;;;;2131868;27;19937;-43
2022/09/05 06:24:44;;;;;;;;;;;;;;;;;;2131824;27;19923;-43
2022/09/05 06:25:45;;;;;;;;;;;;;;;;;;2131861;27;19946;-43
2022/09/05 06:26:48;;;;;;;;;;;;;;;;;;2131716;27;19976;-43
2022/09/05 06:27:49;;;;;;;;;;;;;;;;;;2131608;27;19926;-43
2022/09/05 06:29:11;;;;;;;;;;;;;;;;;;2123099;28;20355;-44
2022/09/05 06:30:12;;;;;;;;;;;;;;;;;;2123077;28;20010;-44
2022/09/05 06:31:13;;;;;;;;;;;;;;;;;;2123121;27;20006;-44
2022/09/05 06:32:30;;;;;;;;;;;;;;;;;;2123266;28;19930;-41
2022/09/05 06:33:31;;;;;;;;;;;;;;;;;;2123073;28;19963;-41
2022/09/05 06:34:32;;;;;;;;;;;;;;;;;;2123313;28;19934;-43
2022/09/05 06:35:36;;;;;;;;;;;;;;;;;;2123364;28;20018;-43
2022/09/05 06:36:37;;;;;;;;;;;;;;;;;;2123030;27;19923;-43
2022/09/05 06:37:38;;;;;;;;;;;;;;;;;;2123447;28;20365;-43
2022/09/05 06:38:38;;;;;;;;;;;;;;;;;;2123486;28;20018;-41
2022/09/05 06:39:40;;;;;;;;;;;;;;;;;;2122936;28;19924;-41
2022/09/05 06:40:40;;;;;;;;;;;;;;;;;;2123154;28;20299;-41
2022/09/05 06:41:41;;;;;;;;;;;;;;;;;;2123214;27;19923;-41
2022/09/05 06:42:42;;;;;;;;;;;;;;;;;;2123174;28;20445;-41
2022/09/05 06:43:44;;;;;;;;;;;;;;;;;;2122970;28;19923;-41
2022/09/05 06:44:45;;;;;;;;;;;;;;;;;;2123189;28;20334;-41
2022/09/05 06:45:46;;;;;;;;;;;;;;;;;;2123050;28;20071;-41
2022/09/05 06:46:48;;;;;;;;;;;;;;;;;;2123089;27;19923;-41
2022/09/05 06:48:09;;;;;;;;;;;;;;;;;;2123142;28;19923;-42
2022/09/05 06:49:12;;;;;;;;;;;;;;;;;;2123184;28;19931;-41
2022/09/05 06:50:33;;;;;;;;;;;;;;;;;;2123259;27;19983;-41
2022/09/05 06:51:53;;;;;;;;;;;;;;;;;;2124555;27;19935;-42
2022/09/05 06:53:07;;;;;;;;;;;;;;;;;;2124451;28;19935;-41
2022/09/05 06:54:12;;;;;;;;;;;;;;;;;;2124451;28;20409;-41
2022/09/05 06:55:13;;;;;;;;;;;;;;;;;;2124411;28;19934;-41
2022/09/05 06:56:14;;;;;;;;;;;;;;;;;;2129888;27;20450;-43
2022/09/05 06:57:28;;;;;;;;;;;;;;;;;;2133023;27;19923;-44
2022/09/05 06:58:28;;;;;;;;;;;;;;;;;;2124772;28;20048;-42
2022/09/05 06:59:33;;;;;;;;;;;;;;;;;;2124453;28;19943;-41
2022/09/05 07:00:35;;;;;;;;;;;;;;;;;;2124432;28;20069;-41
2022/09/05 07:01:36;;;;;;;;;;;;;;;;;;2124577;27;19959;-41
2022/09/05 07:02:57;;;;;;;;;;;;;;;;;;2124307;28;19946;-41
2022/09/05 07:03:59;;;;;;;;;;;;;;;;;;2124391;28;20457;-41
2022/09/05 07:05:20;;;;;;;;;;;;;;;;;;2124392;28;19923;-41
2022/09/05 07:06:38;;;;;;;;;;;;;;;;;;2128113;27;19923;-44
2022/09/05 07:07:51;;;;;;;;;;;;;;;;;;2133353;27;19923;-41
2022/09/05 07:08:52;;;;;;;;;;;;;;;;;;2133143;27;19923;-43
2022/09/05 07:09:53;;;;;;;;;;;;;;;;;;2133212;27;20006;-45
2022/09/05 07:10:54;;;;;;;;;;;;;;;;;;2132958;27;20082;-45
2022/09/05 07:11:55;;;;;;;;;;;;;;;;;;2124929;27;19975;-46
2022/09/05 07:12:56;;;;;;;;;;;;;;;;;;2124368;28;19927;-44
2022/09/05 07:13:56;;;;;;;;;;;;;;;;;;2124408;28;19962;-44
2022/09/05 07:14:57;;;;;;;;;;;;;;;;;;2124605;27;20298;-45
2022/09/05 07:15:58;;;;;;;;;;;;;;;;;;2124665;28;20498;-44
2022/09/05 07:16:59;;;;;;;;;;;;;;;;;;2124313;27;19931;-42
2022/09/05 07:18:00;;;;;;;;;;;;;;;;;;2124389;28;20003;-42
2022/09/05 07:19:17;;;;;;;;;;;;;;;;;;2124451;28;19999;-42
2022/09/05 07:20:17;;;;;;;;;;;;;;;;;;2124509;28;20385;-45
2022/09/05 07:21:18;;;;;;;;;;;;;;;;;;2124171;27;19927;-44
2022/09/05 07:22:27;;;;;;;;;;;;;;;;;;2124265;28;19958;-43
2022/09/05 07:23:47;;;;;;;;;;;;;;;;;;2124451;28;19923;-45
2022/09/05 07:25:07;;;;;;;;;;;;;;;;;;2124336;28;19984;-45
2022/09/05 07:26:09;;;;;;;;;;;;;;;;;;2124652;28;19923;-42
2022/09/05 07:27:10;;;;;;;;;;;;;;;;;;2124276;27;20026;-42